createdAt,value
2017-05-29T00:00:00.502Z,23.99
2017-05-29T00:00:41.402Z,23.96
2017-05-29T00:01:22.292Z,24.01
2017-05-29T00:02:03.195Z,24.02
2017-05-29T00:02:44.103Z,24.06
2017-05-29T00:03:24.999Z,24.1
2017-05-29T00:04:05.952Z,24.11
2017-05-29T00:04:46.789Z,24.17
2017-05-29T00:05:27.686Z,24.2
2017-05-29T00:06:08.578Z,24.16
2017-05-29T00:06:49.470Z,24.13
2017-05-29T00:07:30.355Z,24.14
2017-05-29T00:08:11.249Z,24.08
2017-05-29T00:08:52.153Z,23.91
2017-05-29T00:09:33.049Z,23.91
2017-05-29T00:10:13.949Z,23.91
2017-05-29T00:10:54.838Z,24.01
2017-05-29T00:11:35.768Z,23.96
2017-05-29T00:12:16.672Z,24.02
2017-05-29T00:12:57.585Z,23.91
2017-05-29T00:13:38.469Z,23.86
2017-05-29T00:14:19.379Z,23.8
2017-05-29T00:15:00.269Z,23.77
2017-05-29T00:15:41.154Z,23.81
2017-05-29T00:16:22.056Z,23.86
2017-05-29T00:17:02.969Z,23.88
2017-05-29T00:17:43.894Z,23.93
2017-05-29T00:18:24.786Z,23.87
2017-05-29T00:19:05.694Z,23.77
2017-05-29T00:19:46.579Z,23.86
2017-05-29T00:20:27.666Z,23.84
2017-05-29T00:21:08.631Z,23.86
2017-05-29T00:21:49.539Z,23.87
2017-05-29T00:22:30.428Z,23.86
2017-05-29T00:23:11.330Z,23.91
2017-05-29T00:23:52.232Z,23.93
2017-05-29T00:24:33.127Z,23.93
2017-05-29T00:25:14.016Z,23.99
2017-05-29T00:25:54.893Z,23.91
2017-05-29T00:26:35.773Z,23.92
2017-05-29T00:27:17.355Z,23.92
2017-05-29T00:27:58.251Z,23.86
2017-05-29T00:28:39.159Z,23.92
2017-05-29T00:29:20.048Z,23.91
2017-05-29T00:30:00.952Z,23.83
2017-05-29T00:30:41.837Z,23.83
2017-05-29T00:31:22.726Z,23.86
2017-05-29T00:32:03.635Z,23.84
2017-05-29T00:32:44.546Z,23.87
2017-05-29T00:33:25.427Z,23.91
2017-05-29T00:34:06.325Z,23.83
2017-05-29T00:34:47.203Z,23.87
2017-05-29T00:35:28.100Z,23.86
2017-05-29T00:36:08.997Z,23.8
2017-05-29T00:36:49.882Z,23.84
2017-05-29T00:37:30.781Z,23.78
2017-05-29T00:38:11.670Z,23.71
2017-05-29T00:38:52.569Z,23.77
2017-05-29T00:39:33.474Z,23.71
2017-05-29T00:40:14.359Z,23.73
2017-05-29T00:40:55.264Z,23.66
2017-05-29T00:41:36.171Z,23.59
2017-05-29T00:42:17.060Z,23.62
2017-05-29T00:42:57.952Z,23.51
2017-05-29T00:43:38.849Z,23.54
2017-05-29T00:44:19.740Z,23.55
2017-05-29T00:45:00.659Z,23.54
2017-05-29T00:45:41.532Z,23.55
2017-05-29T00:46:22.417Z,23.56
2017-05-29T00:47:03.305Z,23.55
2017-05-29T00:47:44.204Z,23.58
2017-05-29T00:48:25.093Z,23.41
2017-05-29T00:49:05.983Z,23.41
2017-05-29T00:49:46.878Z,23.4
2017-05-29T00:50:27.794Z,23.54
2017-05-29T00:51:08.698Z,23.43
2017-05-29T00:51:49.587Z,23.25
2017-05-29T00:52:30.483Z,23.34
2017-05-29T00:53:11.375Z,23.34
2017-05-29T00:53:52.257Z,23.24
2017-05-29T00:54:33.167Z,23.13
2017-05-29T00:55:14.077Z,23.15
2017-05-29T00:55:54.964Z,23.13
2017-05-29T00:56:35.863Z,23.13
2017-05-29T00:57:16.762Z,23.12
2017-05-29T00:57:57.642Z,23.15
2017-05-29T00:58:38.545Z,23.24
2017-05-29T00:59:19.431Z,23.28
2017-05-29T01:00:00.340Z,23.18
2017-05-29T01:00:41.225Z,23.21
2017-05-29T01:01:22.127Z,23.09
2017-05-29T01:02:03.040Z,23.09
2017-05-29T01:02:43.961Z,23.05
2017-05-29T01:03:24.831Z,23.03
2017-05-29T01:04:05.732Z,23.12
2017-05-29T01:04:46.631Z,23
2017-05-29T01:05:27.522Z,22.98
2017-05-29T01:06:08.461Z,22.98
2017-05-29T01:06:49.356Z,22.96
2017-05-29T01:07:30.289Z,23.02
2017-05-29T01:08:11.185Z,22.81
2017-05-29T01:08:52.105Z,22.85
2017-05-29T01:09:32.989Z,22.73
2017-05-29T01:10:13.883Z,22.72
2017-05-29T01:10:54.785Z,22.78
2017-05-29T01:11:35.660Z,22.68
2017-05-29T01:12:16.547Z,22.7
2017-05-29T01:12:57.440Z,22.57
2017-05-29T01:13:38.326Z,22.7
2017-05-29T01:14:19.289Z,22.5
2017-05-29T01:15:00.171Z,22.33
2017-05-29T01:15:41.059Z,22.35
2017-05-29T01:16:21.953Z,22.39
2017-05-29T01:17:02.855Z,22.32
2017-05-29T01:17:43.767Z,22.26
2017-05-29T01:18:24.646Z,22.36
2017-05-29T01:19:05.534Z,22.33
2017-05-29T01:19:46.435Z,22.23
2017-05-29T01:20:27.370Z,22.15
2017-05-29T01:21:08.270Z,22.25
2017-05-29T01:21:49.157Z,22.26
2017-05-29T01:22:30.089Z,22.25
2017-05-29T01:23:10.970Z,22.29
2017-05-29T01:23:51.865Z,22.3
2017-05-29T01:24:32.752Z,22.32
2017-05-29T01:25:13.651Z,22.26
2017-05-29T01:25:54.545Z,22.28
2017-05-29T01:26:35.444Z,22.26
2017-05-29T01:27:16.347Z,22.29
2017-05-29T01:27:57.242Z,22.26
2017-05-29T01:28:38.126Z,22.26
2017-05-29T01:29:19.029Z,22.28
2017-05-29T01:29:59.926Z,22.23
2017-05-29T01:30:40.820Z,22.23
2017-05-29T01:31:21.716Z,22.26
2017-05-29T01:32:02.595Z,22.26
2017-05-29T01:32:43.488Z,22.3
2017-05-29T01:33:24.393Z,22.32
2017-05-29T01:34:05.287Z,22.25
2017-05-29T01:34:46.160Z,22.26
2017-05-29T01:35:27.069Z,22.25
2017-05-29T01:36:07.973Z,22.26
2017-05-29T01:36:48.871Z,22.28
2017-05-29T01:37:29.785Z,22.22
2017-05-29T01:38:57.899Z,22.1
2017-05-29T01:39:38.788Z,22.02
2017-05-29T01:40:19.689Z,22.04
2017-05-29T01:41:00.621Z,22.06
2017-05-29T01:41:41.510Z,21.95
2017-05-29T01:42:22.423Z,21.96
2017-05-29T01:43:03.325Z,22.11
2017-05-29T01:43:44.238Z,22.14
2017-05-29T01:44:25.124Z,21.98
2017-05-29T01:45:06.001Z,21.98
2017-05-29T01:45:46.890Z,21.98
2017-05-29T01:46:27.780Z,21.99
2017-05-29T01:47:08.676Z,22
2017-05-29T01:47:49.563Z,21.99
2017-05-29T01:48:30.471Z,21.98
2017-05-29T01:49:11.402Z,22.06
2017-05-29T01:49:52.292Z,21.93
2017-05-29T01:50:33.167Z,21.93
2017-05-29T01:51:14.061Z,21.95
2017-05-29T01:51:54.963Z,21.95
2017-05-29T01:52:35.867Z,21.92
2017-05-29T01:53:16.762Z,21.96
2017-05-29T01:53:57.645Z,21.99
2017-05-29T01:54:38.522Z,21.95
2017-05-29T01:55:19.434Z,21.93
2017-05-29T01:56:00.315Z,21.96
2017-05-29T01:56:41.208Z,21.88
2017-05-29T01:57:22.095Z,21.88
2017-05-29T01:58:02.999Z,21.95
2017-05-29T01:58:43.902Z,21.95
2017-05-29T01:59:24.810Z,21.99
2017-05-29T02:00:05.691Z,21.96
2017-05-29T02:00:46.587Z,22.11
2017-05-29T02:01:27.470Z,22.04
2017-05-29T02:02:08.369Z,21.98
2017-05-29T02:02:49.283Z,22.11
2017-05-29T02:03:30.197Z,22.15
2017-05-29T02:04:11.071Z,22.17
2017-05-29T02:04:51.967Z,22.26
2017-05-29T02:05:32.860Z,22.25
2017-05-29T02:06:13.761Z,22.17
2017-05-29T02:06:54.655Z,22.11
2017-05-29T02:07:35.541Z,22.1
2017-05-29T02:08:16.535Z,21.91
2017-05-29T02:08:57.381Z,21.93
2017-05-29T02:09:38.287Z,21.95
2017-05-29T02:10:19.204Z,21.96
2017-05-29T02:11:00.106Z,21.89
2017-05-29T02:11:41.070Z,21.88
2017-05-29T02:12:21.890Z,21.93
2017-05-29T02:13:02.782Z,21.96
2017-05-29T02:15:21.695Z,21.77
2017-05-29T02:16:02.586Z,21.76
2017-05-29T02:16:43.474Z,21.93
2017-05-29T02:17:24.377Z,22.08
2017-05-29T02:18:05.277Z,22.13
2017-05-29T02:18:46.169Z,22.14
2017-05-29T02:19:27.071Z,22.13
2017-05-29T02:20:07.956Z,22.11
2017-05-29T02:20:48.847Z,22.08
2017-05-29T02:21:29.748Z,22.1
2017-05-29T02:22:10.629Z,22.1
2017-05-29T02:22:51.518Z,22.07
2017-05-29T02:23:32.426Z,22.1
2017-05-29T02:24:13.329Z,22.18
2017-05-29T02:24:54.214Z,22.1
2017-05-29T02:25:35.107Z,22.17
2017-05-29T02:26:16.002Z,22.14
2017-05-29T02:26:56.893Z,22.1
2017-05-29T02:27:37.796Z,22.04
2017-05-29T02:28:18.680Z,22.14
2017-05-29T02:28:59.573Z,22.13
2017-05-29T02:29:40.481Z,22.11
2017-05-29T02:30:21.354Z,22.23
2017-05-29T02:31:02.248Z,22.18
2017-05-29T02:31:43.150Z,22.18
2017-05-29T02:32:24.027Z,22.29
2017-05-29T02:33:04.921Z,22.26
2017-05-29T02:33:45.820Z,22.25
2017-05-29T02:34:26.711Z,22.2
2017-05-29T02:35:07.613Z,22.23
2017-05-29T02:35:48.504Z,22.14
2017-05-29T02:36:29.389Z,22.22
2017-05-29T02:37:10.299Z,22.17
2017-05-29T02:37:51.185Z,22.17
2017-05-29T02:38:32.067Z,22.11
2017-05-29T02:39:12.980Z,22.1
2017-05-29T02:39:53.876Z,22.15
2017-05-29T02:40:34.768Z,22.17
2017-05-29T02:41:15.676Z,22.11
2017-05-29T02:41:56.571Z,22.15
2017-05-29T02:42:37.476Z,22.08
2017-05-29T02:43:18.499Z,22.07
2017-05-29T02:43:59.405Z,21.95
2017-05-29T02:44:40.289Z,21.99
2017-05-29T02:46:18.914Z,21.95
2017-05-29T02:46:59.812Z,21.93
2017-05-29T02:47:40.699Z,21.98
2017-05-29T02:48:21.609Z,22.04
2017-05-29T02:49:02.619Z,21.93
2017-05-29T02:49:43.395Z,22.08
2017-05-29T02:50:24.284Z,21.88
2017-05-29T02:51:05.193Z,21.95
2017-05-29T02:51:46.214Z,21.89
2017-05-29T02:52:27.123Z,21.85
2017-05-29T02:53:07.994Z,21.83
2017-05-29T02:53:48.881Z,21.82
2017-05-29T02:54:29.789Z,21.88
2017-05-29T02:55:10.707Z,21.96
2017-05-29T02:55:51.593Z,22
2017-05-29T02:56:32.484Z,22.04
2017-05-29T02:57:13.388Z,21.96
2017-05-29T02:57:54.282Z,21.91
2017-05-29T02:58:35.164Z,21.85
2017-05-29T02:59:16.058Z,21.67
2017-05-29T02:59:56.963Z,21.72
2017-05-29T03:00:37.848Z,21.73
2017-05-29T03:01:18.791Z,21.82
2017-05-29T03:01:59.715Z,21.91
2017-05-29T03:02:41.110Z,21.85
2017-05-29T03:03:22.009Z,21.89
2017-05-29T03:04:02.907Z,21.89
2017-05-29T03:04:43.790Z,21.83
2017-05-29T03:05:24.693Z,21.93
2017-05-29T03:06:05.603Z,21.92
2017-05-29T03:06:46.482Z,21.98
2017-05-29T03:07:27.395Z,21.92
2017-05-29T03:08:08.277Z,21.99
2017-05-29T03:08:49.165Z,21.95
2017-05-29T03:09:30.068Z,21.96
2017-05-29T03:10:10.960Z,21.92
2017-05-29T03:10:51.848Z,21.99
2017-05-29T03:11:32.747Z,21.95
2017-05-29T03:12:13.636Z,21.98
2017-05-29T03:12:54.519Z,21.91
2017-05-29T03:13:35.423Z,22
2017-05-29T03:14:16.320Z,22.08
2017-05-29T03:14:57.220Z,22.06
2017-05-29T03:15:38.124Z,22.11
2017-05-29T03:16:19.005Z,22.11
2017-05-29T03:16:59.906Z,21.98
2017-05-29T03:17:40.801Z,21.98
2017-05-29T03:18:21.718Z,21.93
2017-05-29T03:19:02.628Z,21.96
2017-05-29T03:19:43.506Z,21.83
2017-05-29T03:20:24.406Z,21.7
2017-05-29T03:21:05.309Z,21.72
2017-05-29T03:21:46.194Z,21.75
2017-05-29T03:22:27.101Z,21.85
2017-05-29T03:23:07.991Z,21.83
2017-05-29T03:23:48.942Z,21.93
2017-05-29T03:24:29.839Z,21.98
2017-05-29T03:25:10.749Z,21.99
2017-05-29T03:25:51.625Z,21.95
2017-05-29T03:26:32.531Z,21.95
2017-05-29T03:27:13.434Z,21.99
2017-05-29T03:27:54.332Z,22.08
2017-05-29T03:28:35.241Z,22.13
2017-05-29T03:29:16.115Z,22.11
2017-05-29T03:29:57.012Z,22.11
2017-05-29T03:30:37.917Z,22.04
2017-05-29T03:31:18.799Z,21.93
2017-05-29T03:31:59.702Z,21.92
2017-05-29T03:32:40.612Z,21.88
2017-05-29T03:33:21.476Z,21.8
2017-05-29T03:34:02.382Z,21.7
2017-05-29T03:34:43.281Z,21.72
2017-05-29T03:35:24.174Z,21.69
2017-05-29T03:36:05.080Z,21.72
2017-05-29T03:36:46.011Z,21.67
2017-05-29T03:38:04.938Z,21.72
2017-05-29T03:38:45.829Z,21.8
2017-05-29T03:39:26.715Z,21.88
2017-05-29T03:40:07.609Z,21.85
2017-05-29T03:40:48.512Z,21.98
2017-05-29T03:41:29.405Z,21.92
2017-05-29T03:42:10.312Z,21.89
2017-05-29T03:42:51.203Z,21.67
2017-05-29T03:43:32.100Z,21.62
2017-05-29T03:44:13.013Z,21.75
2017-05-29T03:44:53.898Z,21.76
2017-05-29T03:45:34.801Z,21.7
2017-05-29T03:46:15.690Z,21.75
2017-05-29T03:46:56.587Z,21.73
2017-05-29T03:47:37.489Z,21.66
2017-05-29T03:48:18.387Z,21.67
2017-05-29T03:48:59.272Z,21.75
2017-05-29T03:49:40.183Z,21.73
2017-05-29T03:50:21.069Z,21.73
2017-05-29T03:51:01.958Z,21.69
2017-05-29T03:51:42.861Z,21.72
2017-05-29T03:52:23.748Z,21.99
2017-05-29T03:53:04.653Z,21.98
2017-05-29T03:53:45.565Z,21.95
2017-05-29T03:54:26.448Z,21.93
2017-05-29T03:55:07.356Z,21.98
2017-05-29T03:55:48.240Z,21.93
2017-05-29T03:56:29.134Z,21.91
2017-05-29T03:57:10.033Z,21.95
2017-05-29T03:57:50.933Z,21.82
2017-05-29T03:58:31.832Z,21.69
2017-05-29T03:59:12.726Z,21.69
2017-05-29T03:59:53.608Z,21.69
2017-05-29T04:00:34.523Z,21.72
2017-05-29T04:01:15.387Z,21.69
2017-05-29T04:01:56.361Z,21.66
2017-05-29T04:02:37.245Z,21.69
2017-05-29T04:03:18.141Z,21.75
2017-05-29T04:03:59.038Z,21.72
2017-05-29T04:05:33.284Z,21.75
2017-05-29T04:06:14.188Z,21.73
2017-05-29T04:06:55.075Z,21.61
2017-05-29T04:07:35.972Z,21.66
2017-05-29T04:08:16.866Z,21.82
2017-05-29T04:08:57.747Z,21.79
2017-05-29T04:09:38.628Z,21.83
2017-05-29T04:10:19.527Z,21.92
2017-05-29T04:11:00.436Z,21.96
2017-05-29T04:11:41.316Z,21.82
2017-05-29T04:12:22.243Z,21.91
2017-05-29T04:13:03.114Z,21.95
2017-05-29T04:13:44.014Z,21.69
2017-05-29T04:14:24.936Z,21.69
2017-05-29T04:15:05.831Z,21.76
2017-05-29T04:15:46.729Z,21.83
2017-05-29T04:16:27.609Z,21.83
2017-05-29T04:17:08.510Z,21.88
2017-05-29T04:17:49.405Z,21.77
2017-05-29T04:18:30.319Z,21.72
2017-05-29T04:19:11.232Z,21.75
2017-05-29T04:19:52.133Z,21.69
2017-05-29T04:20:33.036Z,21.61
2017-05-29T04:21:14.063Z,21.61
2017-05-29T04:21:54.977Z,21.72
2017-05-29T04:22:35.878Z,21.76
2017-05-29T04:23:16.779Z,21.8
2017-05-29T04:23:57.693Z,21.85
2017-05-29T04:24:38.595Z,21.95
2017-05-29T04:25:19.482Z,22.07
2017-05-29T04:26:00.394Z,22.11
2017-05-29T04:26:41.300Z,22.08
2017-05-29T04:27:22.217Z,22.1
2017-05-29T04:28:03.118Z,22.18
2017-05-29T04:28:44.053Z,22.08
2017-05-29T04:29:24.937Z,22.1
2017-05-29T04:30:05.836Z,22.15
2017-05-29T04:30:46.732Z,22.11
2017-05-29T04:31:27.625Z,22.15
2017-05-29T04:32:08.571Z,22.22
2017-05-29T04:32:49.485Z,22.28
2017-05-29T04:33:30.369Z,22.28
2017-05-29T04:34:11.277Z,22.32
2017-05-29T04:34:52.194Z,22.32
2017-05-29T04:35:33.067Z,22.33
2017-05-29T04:36:13.971Z,22.38
2017-05-29T04:36:54.865Z,22.47
2017-05-29T04:37:35.799Z,22.38
2017-05-29T04:38:16.669Z,22.47
2017-05-29T04:38:57.590Z,22.51
2017-05-29T04:39:38.490Z,22.5
2017-05-29T04:40:19.377Z,22.43
2017-05-29T04:41:00.289Z,22.41
2017-05-29T04:41:41.194Z,22.47
2017-05-29T04:42:22.090Z,22.5
2017-05-29T04:43:02.996Z,22.57
2017-05-29T04:44:56.671Z,22.62
2017-05-29T04:45:37.568Z,22.66
2017-05-29T04:46:18.472Z,22.63
2017-05-29T04:46:59.357Z,22.69
2017-05-29T04:47:40.267Z,22.68
2017-05-29T04:48:21.179Z,22.78
2017-05-29T04:49:02.078Z,22.69
2017-05-29T04:49:42.985Z,22.59
2017-05-29T04:50:23.895Z,22.53
2017-05-29T04:51:04.780Z,22.7
2017-05-29T04:52:32.899Z,22.73
2017-05-29T04:53:13.791Z,22.76
2017-05-29T04:53:54.694Z,22.83
2017-05-29T04:54:35.596Z,22.76
2017-05-29T04:55:16.482Z,22.73
2017-05-29T04:55:57.369Z,22.73
2017-05-29T04:56:38.274Z,22.84
2017-05-29T04:57:19.162Z,22.72
2017-05-29T04:58:00.053Z,22.73
2017-05-29T04:58:40.957Z,22.84
2017-05-29T04:59:21.834Z,22.81
2017-05-29T05:00:02.723Z,22.78
2017-05-29T05:00:43.626Z,22.75
2017-05-29T05:01:24.599Z,22.7
2017-05-29T05:02:05.506Z,22.7
2017-05-29T05:02:46.441Z,22.51
2017-05-29T05:03:27.360Z,22.47
2017-05-29T05:04:08.269Z,22.5
2017-05-29T05:04:49.167Z,22.53
2017-05-29T05:05:30.076Z,22.51
2017-05-29T05:06:11.027Z,22.44
2017-05-29T05:06:51.911Z,22.43
2017-05-29T05:07:32.815Z,22.45
2017-05-29T05:08:13.700Z,22.65
2017-05-29T05:08:54.610Z,22.78
2017-05-29T05:09:35.520Z,22.85
2017-05-29T05:10:16.391Z,22.8
2017-05-29T05:10:57.301Z,22.76
2017-05-29T05:11:38.206Z,22.85
2017-05-29T05:12:19.111Z,22.94
2017-05-29T05:13:00.002Z,22.94
2017-05-29T05:13:40.899Z,22.93
2017-05-29T05:14:21.802Z,22.69
2017-05-29T05:15:02.691Z,22.73
2017-05-29T05:15:43.637Z,22.72
2017-05-29T05:16:24.541Z,22.8
2017-05-29T05:17:05.440Z,22.73
2017-05-29T05:17:46.341Z,22.81
2017-05-29T05:18:27.246Z,23.03
2017-05-29T05:19:08.155Z,23.1
2017-05-29T05:19:49.063Z,23.32
2017-05-29T05:20:29.964Z,23.36
2017-05-29T05:21:10.860Z,23.43
2017-05-29T05:21:51.767Z,23.46
2017-05-29T05:22:32.662Z,23.54
2017-05-29T05:23:13.650Z,23.39
2017-05-29T05:23:54.565Z,23.37
2017-05-29T05:24:35.458Z,23.31
2017-05-29T05:25:16.364Z,23.34
2017-05-29T05:25:57.261Z,23.31
2017-05-29T05:26:38.166Z,23.34
2017-05-29T05:27:19.069Z,23.46
2017-05-29T05:27:59.985Z,23.47
2017-05-29T05:28:40.878Z,23.5
2017-05-29T05:29:21.768Z,23.59
2017-05-29T05:30:02.698Z,23.61
2017-05-29T05:30:43.595Z,23.62
2017-05-29T05:31:24.530Z,23.66
2017-05-29T05:32:05.437Z,23.68
2017-05-29T05:32:46.332Z,23.69
2017-05-29T05:33:27.239Z,23.54
2017-05-29T05:34:08.145Z,23.65
2017-05-29T05:34:49.030Z,23.62
2017-05-29T05:35:29.951Z,23.65
2017-05-29T05:36:10.842Z,23.54
2017-05-29T05:36:51.735Z,23.59
2017-05-29T05:37:32.623Z,23.69
2017-05-29T05:38:13.502Z,23.83
2017-05-29T05:38:54.409Z,23.78
2017-05-29T05:39:35.311Z,23.84
2017-05-29T05:40:16.204Z,23.71
2017-05-29T05:40:58.018Z,23.55
2017-05-29T05:41:38.920Z,23.28
2017-05-29T05:42:19.808Z,23.43
2017-05-29T05:43:00.720Z,23.43
2017-05-29T05:43:41.620Z,23.51
2017-05-29T05:44:22.561Z,23.59
2017-05-29T05:45:41.465Z,23.55
2017-05-29T05:46:22.362Z,23.4
2017-05-29T05:47:03.261Z,23.4
2017-05-29T05:47:44.160Z,23.34
2017-05-29T05:48:25.056Z,23.39
2017-05-29T05:49:05.959Z,23.28
2017-05-29T05:49:46.859Z,23.44
2017-05-29T05:50:27.762Z,23.39
2017-05-29T05:51:08.673Z,23.5
2017-05-29T05:51:49.580Z,23.5
2017-05-29T05:52:30.475Z,23.41
2017-05-29T05:53:11.381Z,23.5
2017-05-29T05:53:52.286Z,23.44
2017-05-29T05:54:33.184Z,23.48
2017-05-29T05:55:14.091Z,23.65
2017-05-29T05:55:54.985Z,23.68
2017-05-29T05:56:35.878Z,23.83
2017-05-29T05:57:16.781Z,23.58
2017-05-29T05:57:57.673Z,23.54
2017-05-29T05:58:38.644Z,23.73
2017-05-29T05:59:19.586Z,23.76
2017-05-29T06:00:00.493Z,23.86
2017-05-29T06:00:41.387Z,23.87
2017-05-29T06:01:22.291Z,23.84
2017-05-29T06:02:03.191Z,23.81
2017-05-29T06:02:44.091Z,23.77
2017-05-29T06:03:25.004Z,23.73
2017-05-29T06:04:05.913Z,23.86
2017-05-29T06:04:46.793Z,24.1
2017-05-29T06:05:27.692Z,24.01
2017-05-29T06:06:08.595Z,23.77
2017-05-29T06:06:49.490Z,23.8
2017-05-29T06:07:30.392Z,23.95
2017-05-29T06:08:11.288Z,23.84
2017-05-29T06:08:52.235Z,23.65
2017-05-29T06:09:33.137Z,23.87
2017-05-29T06:10:14.029Z,23.87
2017-05-29T06:10:54.931Z,23.87
2017-05-29T06:11:35.820Z,23.95
2017-05-29T06:12:16.718Z,24.33
2017-05-29T06:12:57.637Z,24.61
2017-05-29T06:13:38.597Z,24.89
2017-05-29T06:14:19.497Z,25.29
2017-05-29T06:15:00.395Z,25.9
2017-05-29T06:15:41.295Z,26.1
2017-05-29T06:16:22.189Z,26.28
2017-05-29T06:17:03.116Z,26.73
2017-05-29T06:17:43.978Z,26.88
2017-05-29T06:18:24.877Z,26.56
2017-05-29T06:19:05.787Z,26.8
2017-05-29T06:19:46.690Z,26.95
2017-05-29T06:20:27.597Z,27.2
2017-05-29T06:21:08.512Z,26.52
2017-05-29T06:21:49.410Z,26.47
2017-05-29T06:22:30.314Z,26.41
2017-05-29T06:23:11.218Z,26.43
2017-05-29T06:23:52.160Z,26.56
2017-05-29T06:24:33.069Z,25.95
2017-05-29T06:25:13.962Z,25.9
2017-05-29T06:25:54.859Z,25.95
2017-05-29T06:26:35.772Z,26.13
2017-05-29T06:27:16.678Z,26.78
2017-05-29T06:27:57.590Z,26.7
2017-05-29T06:28:38.522Z,26.68
2017-05-29T06:29:19.437Z,27.44
2017-05-29T06:30:00.348Z,27.71
2017-05-29T06:30:41.246Z,27.98
2017-05-29T06:31:22.203Z,28.08
2017-05-29T06:32:03.114Z,28.35
2017-05-29T06:32:44.033Z,29.14
2017-05-29T06:33:24.942Z,29.45
2017-05-29T06:34:05.849Z,29.56
2017-05-29T06:34:46.789Z,28.56
2017-05-29T06:35:27.644Z,27.89
2017-05-29T06:36:08.555Z,27.92
2017-05-29T06:36:49.459Z,28.98
2017-05-29T06:37:30.364Z,29.63
2017-05-29T06:38:11.281Z,30.3
2017-05-29T06:38:52.187Z,30.15
2017-05-29T06:39:33.098Z,30
2017-05-29T06:40:14.012Z,30.35
2017-05-29T06:40:54.911Z,30.03
2017-05-29T06:41:35.814Z,29.44
2017-05-29T06:42:16.743Z,30.35
2017-05-29T06:42:57.659Z,30.99
2017-05-29T06:43:38.576Z,31.24
2017-05-29T06:44:19.486Z,30.34
2017-05-29T06:45:00.409Z,29.35
2017-05-29T06:45:41.311Z,28.64
2017-05-29T06:46:22.228Z,29.24
2017-05-29T06:47:03.141Z,30.24
2017-05-29T06:47:44.061Z,30.83
2017-05-29T06:48:24.959Z,31.07
2017-05-29T06:49:05.874Z,31.66
2017-05-29T06:49:46.783Z,32.01
2017-05-29T06:50:27.701Z,30.57
2017-05-29T06:51:08.616Z,29.73
2017-05-29T06:51:49.509Z,28.66
2017-05-29T06:52:30.415Z,29.05
2017-05-29T06:53:11.358Z,28.63
2017-05-29T06:53:52.266Z,28.81
2017-05-29T06:54:33.163Z,28.79
2017-05-29T06:55:14.104Z,28.6
2017-05-29T06:55:55.011Z,28.51
2017-05-29T06:56:35.927Z,28.78
2017-05-29T06:57:16.834Z,28.25
2017-05-29T06:57:57.745Z,27.77
2017-05-29T06:58:38.649Z,27.67
2017-05-29T06:59:19.555Z,28.07
2017-05-29T07:00:00.496Z,29.14
2017-05-29T07:00:41.400Z,30.06
2017-05-29T07:02:35.105Z,31.71
2017-05-29T07:03:16.005Z,30.63
2017-05-29T07:03:56.908Z,30.18
2017-05-29T07:04:37.822Z,29.79
2017-05-29T07:05:18.732Z,30.59
2017-05-29T07:05:59.636Z,30.37
2017-05-29T07:06:40.551Z,31.42
2017-05-29T07:07:21.459Z,32.19
2017-05-29T07:08:02.362Z,31.93
2017-05-29T07:08:43.275Z,31.52
2017-05-29T07:09:24.189Z,30.87
2017-05-29T07:10:05.101Z,30.8
2017-05-29T07:10:46.010Z,30.35
2017-05-29T07:11:26.931Z,29.91
2017-05-29T07:12:07.832Z,31.07
2017-05-29T07:12:48.737Z,31.03
2017-05-29T07:13:29.648Z,30.61
2017-05-29T07:14:10.548Z,30.35
2017-05-29T07:14:51.480Z,31.1
2017-05-29T07:15:32.409Z,30.96
2017-05-29T07:16:13.372Z,31.87
2017-05-29T07:16:54.294Z,31.47
2017-05-29T07:17:35.210Z,31.92
2017-05-29T07:18:16.264Z,32.15
2017-05-29T07:18:57.168Z,32.6
2017-05-29T07:19:38.182Z,33
2017-05-29T07:20:19.100Z,32.33
2017-05-29T07:21:00.014Z,31.58
2017-05-29T07:21:41.037Z,31.07
2017-05-29T07:22:21.962Z,31.44
2017-05-29T07:23:02.882Z,31.76
2017-05-29T07:23:43.813Z,30.75
2017-05-29T07:24:24.702Z,29.14
2017-05-29T07:25:05.623Z,28.82
2017-05-29T07:25:46.537Z,29.47
2017-05-29T07:26:27.459Z,30.48
2017-05-29T07:27:08.366Z,31.07
2017-05-29T07:27:49.296Z,31.39
2017-05-29T07:28:30.208Z,31.62
2017-05-29T07:29:11.133Z,31.96
2017-05-29T07:29:52.194Z,32.08
2017-05-29T07:30:33.116Z,32.18
2017-05-29T07:31:14.024Z,32.37
2017-05-29T07:31:54.938Z,32.34
2017-05-29T07:32:35.848Z,31.46
2017-05-29T07:33:16.788Z,31.52
2017-05-29T07:33:57.693Z,31.31
2017-05-29T07:34:38.602Z,31.22
2017-05-29T07:35:19.528Z,30.88
2017-05-29T07:36:00.441Z,30.57
2017-05-29T07:36:41.368Z,30.55
2017-05-29T07:37:22.281Z,29.73
2017-05-29T07:38:03.192Z,29.26
2017-05-29T07:38:44.094Z,29.36
2017-05-29T07:39:25.003Z,29.78
2017-05-29T07:40:05.896Z,30.27
2017-05-29T07:40:46.821Z,29.42
2017-05-29T07:41:27.750Z,30.43
2017-05-29T07:42:08.664Z,30.35
2017-05-29T07:42:49.603Z,29.36
2017-05-29T07:43:30.488Z,28.97
2017-05-29T07:44:11.403Z,29.04
2017-05-29T07:44:52.299Z,28.67
2017-05-29T07:45:33.193Z,29.13
2017-05-29T07:46:14.102Z,29.79
2017-05-29T07:46:55.005Z,30.08
2017-05-29T07:47:35.930Z,30.78
2017-05-29T07:48:16.835Z,31.42
2017-05-29T07:48:57.737Z,30.78
2017-05-29T07:49:38.639Z,30.02
2017-05-29T07:50:19.587Z,29.82
2017-05-29T07:51:00.585Z,29.61
2017-05-29T07:51:41.583Z,29.54
2017-05-29T07:52:22.528Z,28.89
2017-05-29T07:53:03.421Z,28.89
2017-05-29T07:53:44.315Z,29.04
2017-05-29T07:54:25.241Z,29.47
2017-05-29T07:55:06.144Z,30.06
2017-05-29T07:55:47.042Z,30.05
2017-05-29T07:56:27.945Z,29.9
2017-05-29T07:57:08.847Z,30.24
2017-05-29T07:57:49.735Z,30.66
2017-05-29T07:58:30.645Z,31.33
2017-05-29T07:59:11.581Z,31.77
2017-05-29T07:59:52.496Z,32.14
2017-05-29T08:00:33.405Z,32.49
2017-05-29T08:01:14.322Z,32.67
2017-05-29T08:01:55.239Z,32.38
2017-05-29T08:02:36.153Z,32.59
2017-05-29T08:03:17.098Z,31.37
2017-05-29T08:04:35.020Z,31.42
2017-05-29T08:05:15.918Z,31.18
2017-05-29T08:05:56.822Z,32.07
2017-05-29T08:06:37.713Z,32.45
2017-05-29T08:07:18.608Z,32.85
2017-05-29T08:07:59.513Z,33.14
2017-05-29T08:09:53.217Z,32.52
2017-05-29T08:10:34.141Z,32.9
2017-05-29T08:11:15.036Z,33.24
2017-05-29T08:11:55.957Z,33.4
2017-05-29T08:12:36.860Z,33.45
2017-05-29T08:13:17.797Z,32.46
2017-05-29T08:13:58.705Z,32.71
2017-05-29T08:14:39.623Z,31.51
2017-05-29T08:15:20.529Z,31.71
2017-05-29T08:16:01.423Z,31.24
2017-05-29T08:16:42.322Z,30.97
2017-05-29T08:17:23.214Z,31.33
2017-05-29T08:18:04.103Z,31.52
2017-05-29T08:18:44.983Z,31.21
2017-05-29T08:19:25.900Z,30.94
2017-05-29T08:20:06.838Z,30.61
2017-05-29T08:20:47.763Z,30.83
2017-05-29T08:21:28.675Z,30.78
2017-05-29T08:22:09.589Z,31.07
2017-05-29T08:22:50.498Z,30.66
2017-05-29T08:23:31.440Z,30.43
2017-05-29T08:24:12.310Z,30.1
2017-05-29T08:24:53.214Z,29.87
2017-05-29T08:25:34.128Z,29.81
2017-05-29T08:26:15.026Z,30.28
2017-05-29T08:26:55.951Z,30.05
2017-05-29T08:27:36.875Z,30.05
2017-05-29T08:28:18.398Z,29.88
2017-05-29T08:28:59.319Z,29.81
2017-05-29T08:29:40.204Z,30.48
2017-05-29T08:30:21.125Z,30.27
2017-05-29T08:31:54.482Z,28.63
2017-05-29T08:32:35.396Z,28.52
2017-05-29T08:33:16.305Z,28.81
2017-05-29T08:33:57.213Z,28.91
2017-05-29T08:34:38.193Z,28.91
2017-05-29T08:35:19.092Z,29.02
2017-05-29T08:36:00.003Z,29.54
2017-05-29T08:36:40.939Z,29.86
2017-05-29T08:37:21.835Z,29.66
2017-05-29T08:38:02.757Z,29.54
2017-05-29T08:38:43.648Z,29.61
2017-05-29T08:39:24.595Z,29.44
2017-05-29T08:40:05.503Z,29.97
2017-05-29T08:40:46.416Z,29.44
2017-05-29T08:41:27.326Z,29.65
2017-05-29T08:42:08.297Z,29.53
2017-05-29T08:42:49.190Z,29.23
2017-05-29T08:43:30.106Z,29.12
2017-05-29T08:44:11.018Z,29.07
2017-05-29T08:44:51.914Z,28.78
2017-05-29T08:45:32.843Z,29.05
2017-05-29T08:46:13.738Z,29.53
2017-05-29T08:46:54.659Z,29.66
2017-05-29T08:47:35.643Z,29.63
2017-05-29T08:48:16.566Z,30.37
2017-05-29T08:48:57.488Z,31.02
2017-05-29T08:49:38.418Z,31.15
2017-05-29T08:50:19.323Z,30.44
2017-05-29T08:51:00.273Z,29.63
2017-05-29T08:51:41.192Z,29.93
2017-05-29T08:52:22.109Z,30.15
2017-05-29T08:53:03.008Z,30.44
2017-05-29T08:53:43.926Z,31.4
2017-05-29T08:54:24.826Z,32.73
2017-05-29T08:55:05.750Z,33.69
2017-05-29T08:55:46.689Z,34.6
2017-05-29T08:56:27.604Z,35.26
2017-05-29T08:57:08.520Z,35.67
2017-05-29T08:57:49.427Z,35.98
2017-05-29T08:58:30.362Z,34.64
2017-05-29T08:59:11.271Z,33.15
2017-05-29T08:59:52.193Z,33.67